Time;durP1;ratioP1;P1;durP2;ratioP2;P2;SDS_P1;SDS_P2;PMS_P1;PMS_P2;Temp;Humidity;BMP_temperature;BMP_pressure;BME280_temperature;BME280_humidity;BME280_pressure;Samples;Min_cycle;Max_cycle;Signal;HPM_P1;HPM_P2
2023/08/07 00:00:50;;;;;;;10.18;1.92;;;22.90;91.70;;;;;;7416720;19;19919;-79
2023/08/07 00:03:18;;;;;;;12.88;2.40;;;22.90;91.70;;;;;;7414110;19;19926;-79
2023/08/07 00:05:54;;;;;;;15.35;2.42;;;22.90;91.70;;;;;;7413767;19;19918;-80
2023/08/07 00:08:20;;;;;;;11.50;2.20;;;22.90;91.70;;;;;;7417267;19;20225;-80
2023/08/07 00:10:48;;;;;;;13.45;2.20;;;22.90;91.80;;;;;;7419805;19;19954;-79
2023/08/07 00:13:14;;;;;;;12.10;2.58;;;22.90;91.80;;;;;;7384586;19;19934;-79
2023/08/07 00:15:40;;;;;;;9.98;2.25;;;22.80;91.80;;;;;;7419196;19;20279;-79
2023/08/07 00:18:06;;;;;;;12.10;2.28;;;22.80;91.90;;;;;;7413643;19;19946;-78
2023/08/07 00:20:32;;;;;;;12.18;2.40;;;22.80;92.10;;;;;;7417588;19;19940;-80
2023/08/07 00:22:58;;;;;;;10.77;2.53;;;22.80;91.90;;;;;;7415735;19;20203;-79
2023/08/07 00:25:23;;;;;;;9.18;2.33;;;22.80;92.00;;;;;;7385754;19;19921;-80
2023/08/07 00:27:50;;;;;;;15.75;2.35;;;22.80;92.10;;;;;;7415649;19;19986;-78
2023/08/07 00:30:16;;;;;;;10.52;2.15;;;22.80;92.10;;;;;;7415073;19;19919;-80
2023/08/07 00:32:42;;;;;;;11.70;2.13;;;22.80;92.10;;;;;;7418618;19;19914;-79
2023/08/07 00:35:08;;;;;;;14.20;2.60;;;22.80;91.90;;;;;;7415813;19;19918;-81
2023/08/07 00:37:34;;;;;;;12.32;1.80;;;22.80;92.10;;;;;;7395431;19;19923;-80
2023/08/07 00:40:00;;;;;;;9.77;1.80;;;22.70;92.20;;;;;;7415174;19;19969;-79
2023/08/07 00:42:27;;;;;;;12.32;1.95;;;22.70;92.30;;;;;;7409410;19;19930;-80
2023/08/07 00:44:57;;;;;;;13.23;2.53;;;22.70;92.30;;;;;;7417519;19;20323;-80
2023/08/07 00:47:23;;;;;;;11.05;2.00;;;22.60;92.20;;;;;;7414504;19;20477;-80
2023/08/07 00:49:49;;;;;;;9.02;1.67;;;22.70;92.20;;;;;;7415585;19;19914;-80
2023/08/07 00:52:15;;;;;;;8.93;1.77;;;22.70;90.50;;;;;;7410551;19;19945;-80
2023/08/07 00:54:41;;;;;;;11.88;1.95;;;22.70;89.10;;;;;;7412540;19;19943;-79
2023/08/07 00:57:12;;;;;;;11.25;1.90;;;22.80;88.00;;;;;;7412946;19;19914;-79
2023/08/07 00:59:42;;;;;;;6.80;1.75;;;22.80;86.40;;;;;;7417395;19;19919;-80
2023/08/07 01:02:09;;;;;;;8.05;1.40;;;22.70;85.30;;;;;;7394962;19;19926;-79
2023/08/07 01:04:35;;;;;;;7.30;1.60;;;22.70;84.40;;;;;;7413186;19;19910;-79
2023/08/07 01:07:01;;;;;;;9.57;1.92;;;22.80;84.10;;;;;;7414246;19;19926;-80
2023/08/07 01:09:27;;;;;;;10.90;1.85;;;22.70;84.00;;;;;;7412020;19;20782;-79
2023/08/07 01:12:03;;;;;;;8.80;1.73;;;22.70;83.90;;;;;;7412382;19;19915;-80
2023/08/07 01:14:38;;;;;;;7.90;1.50;;;22.70;82.90;;;;;;7411901;19;19930;-79
2023/08/07 01:17:19;;;;;;;5.82;1.45;;;22.60;82.40;;;;;;7411390;19;19911;-79
2023/08/07 01:19:47;;;;;;;7.47;1.60;;;22.60;82.60;;;;;;7415678;19;19982;-79
2023/08/07 01:22:14;;;;;;;7.15;1.50;;;22.60;82.90;;;;;;7415680;19;19932;-79
2023/08/07 01:24:43;;;;;;;7.88;1.40;;;22.60;83.00;;;;;;7409617;19;19911;-80
2023/08/07 01:27:18;;;;;;;8.15;1.50;;;22.50;82.60;;;;;;7408785;19;20342;-79
2023/08/07 01:30:03;;;;;;;7.30;1.35;;;22.50;82.40;;;;;;7413168;19;19922;-79
2023/08/07 01:33:10;;;;;;;7.35;1.88;;;22.60;82.00;;;;;;7414515;19;20229;-79
2023/08/07 01:35:50;;;;;;;6.45;1.85;;;22.50;81.90;;;;;;7415864;19;19907;-80
2023/08/07 01:38:17;;;;;;;7.97;1.77;;;22.50;81.80;;;;;;7418480;19;19954;-79
2023/08/07 01:40:44;;;;;;;5.72;1.58;;;22.50;82.00;;;;;;7414236;19;19926;-80
2023/08/07 01:43:10;;;;;;;6.32;1.42;;;22.50;81.90;;;;;;7409694;19;19919;-80
2023/08/07 01:45:36;;;;;;;7.32;1.83;;;22.50;81.80;;;;;;7412125;19;19942;-78
2023/08/07 01:48:02;;;;;;;8.68;1.80;;;22.50;81.60;;;;;;7409079;19;19919;-79
2023/08/07 01:50:29;;;;;;;8.15;1.83;;;22.50;81.80;;;;;;7411630;19;20019;-79
2023/08/07 01:52:55;;;;;;;9.32;1.98;;;22.40;82.30;;;;;;7411976;19;19914;-79
2023/08/07 01:55:22;;;;;;;9.35;1.58;;;22.40;81.90;;;;;;7411735;19;19938;-79
2023/08/07 01:57:48;;;;;;;7.93;1.67;;;22.40;82.10;;;;;;7414424;19;19923;-79
2023/08/07 02:00:15;;;;;;;10.75;2.03;;;22.40;81.70;;;;;;7411585;19;19910;-79
2023/08/07 02:02:41;;;;;;;6.40;1.40;;;22.40;81.80;;;;;;7418907;19;20266;-79
2023/08/07 02:05:07;;;;;;;6.82;1.50;;;22.40;81.70;;;;;;7414859;19;19926;-79
2023/08/07 02:07:33;;;;;;;7.38;1.50;;;22.40;81.60;;;;;;7413840;19;19915;-79
2023/08/07 02:09:58;;;;;;;13.02;2.88;;;22.40;81.40;;;;;;7411543;19;20003;-79
2023/08/07 02:12:26;;;;;;;8.95;2.22;;;22.40;81.40;;;;;;7415623;19;20019;-80
2023/08/07 02:14:52;;;;;;;9.30;2.15;;;22.50;81.30;;;;;;7415482;19;19918;-79
2023/08/07 02:17:21;;;;;;;7.35;1.83;;;22.50;81.10;;;;;;7411193;19;19921;-79
2023/08/07 02:19:47;;;;;;;10.68;1.88;;;22.50;81.10;;;;;;7405800;19;19934;-79
2023/08/07 02:22:13;;;;;;;8.32;1.40;;;22.40;82.70;;;;;;7412177;19;19938;-79
2023/08/07 02:24:39;;;;;;;8.07;1.77;;;22.40;82.30;;;;;;7409150;19;20014;-79
2023/08/07 02:27:05;;;;;;;8.60;1.58;;;22.40;83.40;;;;;;7402443;19;19923;-78
2023/08/07 02:29:33;;;;;;;7.07;1.60;;;22.40;83.80;;;;;;7379354;19;20602;-79
2023/08/07 02:32:03;;;;;;;6.63;1.92;;;22.50;83.90;;;;;;7412427;19;19925;-81
2023/08/07 02:34:29;;;;;;;6.65;1.85;;;22.50;84.00;;;;;;7409955;19;19923;-79
2023/08/07 02:36:55;;;;;;;6.68;1.75;;;22.60;83.70;;;;;;7413363;19;20438;-79
2023/08/07 02:39:22;;;;;;;7.25;1.45;;;22.50;83.50;;;;;;7409052;19;19923;-80
2023/08/07 02:41:48;;;;;;;6.00;1.73;;;22.60;83.50;;;;;;7410221;19;19927;-78
2023/08/07 02:44:14;;;;;;;7.20;1.65;;;22.60;83.10;;;;;;7408870;19;19915;-79
2023/08/07 02:46:40;;;;;;;6.57;1.55;;;22.50;84.70;;;;;;7411849;19;19938;-79
2023/08/07 02:49:05;;;;;;;9.38;1.33;;;21.90;88.90;;;;;;7376554;19;20383;-79
2023/08/07 02:51:32;;;;;;;8.27;1.88;;;21.50;90.60;;;;;;7411191;19;19926;-80
2023/08/07 02:53:58;;;;;;;7.70;1.60;;;21.30;92.20;;;;;;7411824;19;19918;-81
2023/08/07 02:56:24;;;;;;;7.03;1.88;;;21.30;92.40;;;;;;7408958;19;19925;-79
2023/08/07 02:58:50;;;;;;;8.18;1.52;;;21.40;93.20;;;;;;7413425;19;19933;-79
2023/08/07 03:01:15;;;;;;;6.70;1.90;;;21.50;92.30;;;;;;7412000;19;19933;-78
2023/08/07 03:03:41;;;;;;;6.55;1.50;;;21.80;91.60;;;;;;7408600;19;19926;-79
2023/08/07 03:06:07;;;;;;;5.10;1.33;;;21.90;90.40;;;;;;7411808;19;19949;-79
2023/08/07 03:08:34;;;;;;;12.32;2.30;;;22.00;89.50;;;;;;7379089;19;19919;-78
2023/08/07 03:11:00;;;;;;;8.90;1.70;;;22.00;88.30;;;;;;7408295;19;19914;-79
2023/08/07 03:13:26;;;;;;;6.30;1.50;;;22.10;88.10;;;;;;7407937;19;19932;-79
2023/08/07 03:15:59;;;;;;;4.93;1.50;;;22.10;86.90;;;;;;7414042;19;19933;-79
2023/08/07 03:18:25;;;;;;;6.57;1.33;;;22.10;86.50;;;;;;7411696;19;20549;-78
2023/08/07 03:20:51;;;;;;;6.32;1.58;;;22.20;87.00;;;;;;7409297;19;19918;-80
2023/08/07 03:23:16;;;;;;;8.73;1.70;;;22.10;86.90;;;;;;7409769;19;20302;-79
2023/08/07 03:25:42;;;;;;;8.77;1.67;;;22.10;87.50;;;;;;7413499;19;19918;-79
2023/08/07 03:28:08;;;;;;;9.27;2.17;;;22.00;87.80;;;;;;7407483;19;19922;-81
2023/08/07 03:30:34;;;;;;;8.63;1.55;;;22.00;87.80;;;;;;7410173;19;19911;-79
2023/08/07 03:33:00;;;;;;;5.80;1.80;;;22.00;87.70;;;;;;7409338;19;19982;-79
2023/08/07 03:35:26;;;;;;;8.73;1.70;;;21.90;87.70;;;;;;7410806;19;19919;-79
2023/08/07 03:37:52;;;;;;;9.38;1.75;;;21.90;87.90;;;;;;7407125;19;19919;-78
2023/08/07 03:40:17;;;;;;;6.20;1.88;;;21.90;87.70;;;;;;7407869;19;19954;-78
2023/08/07 03:42:43;;;;;;;9.45;1.70;;;21.90;87.80;;;;;;7406166;19;19918;-78
2023/08/07 03:45:10;;;;;;;7.40;1.90;;;21.90;87.90;;;;;;7403443;19;19927;-78
2023/08/07 03:47:36;;;;;;;10.07;2.08;;;21.90;87.80;;;;;;7408833;19;19918;-79
2023/08/07 03:50:02;;;;;;;9.32;1.60;;;21.90;87.80;;;;;;7410041;19;19925;-79
2023/08/07 03:52:28;;;;;;;8.32;1.50;;;21.90;87.90;;;;;;7408242;19;19922;-79
2023/08/07 03:54:54;;;;;;;7.15;1.60;;;21.90;87.40;;;;;;7410752;19;20458;-79
2023/08/07 03:57:20;;;;;;;6.88;1.58;;;21.90;87.60;;;;;;7409581;19;19934;-79
2023/08/07 03:59:45;;;;;;;8.73;2.03;;;21.90;87.60;;;;;;7411468;19;19930;-80
2023/08/07 04:02:11;;;;;;;9.25;1.65;;;21.90;87.70;;;;;;7407476;19;20235;-80
2023/08/07 04:04:37;;;;;;;10.35;1.90;;;21.90;87.70;;;;;;7409981;19;19940;-80
2023/08/07 04:07:03;;;;;;;8.00;1.83;;;21.90;87.70;;;;;;7404905;19;20239;-79
2023/08/07 04:09:29;;;;;;;10.43;1.80;;;21.80;87.80;;;;;;7406241;19;19938;-79
2023/08/07 04:11:55;;;;;;;7.85;1.60;;;21.90;88.20;;;;;;7409528;19;19934;-79
2023/08/07 04:14:21;;;;;;;7.22;1.73;;;21.90;88.30;;;;;;7407428;19;19922;-78
2023/08/07 04:16:47;;;;;;;7.95;1.83;;;21.90;88.20;;;;;;7410152;19;19919;-79
2023/08/07 04:19:12;;;;;;;10.70;1.77;;;21.90;88.60;;;;;;7410397;19;19926;-79
2023/08/07 04:21:38;;;;;;;8.73;2.05;;;21.80;88.50;;;;;;7418392;19;20749;-79
2023/08/07 04:24:10;;;;;;;9.55;2.60;;;21.90;88.30;;;;;;7410534;19;19918;-80
2023/08/07 04:26:36;;;;;;;8.77;1.60;;;21.90;88.40;;;;;;7411226;19;19949;-79
2023/08/07 04:29:02;;;;;;;;;;;21.90;88.40;;;;;;7396005;19;19967;-79
2023/08/07 04:31:30;;;;;;;9.07;1.58;;;21.90;87.80;;;;;;7415436;19;19922;-79
2023/08/07 04:33:57;;;;;;;8.40;1.63;;;21.90;88.00;;;;;;7392051;19;19929;-79
2023/08/07 04:36:22;;;;;;;9.40;2.13;;;21.80;88.30;;;;;;7412515;19;19941;-80
2023/08/07 04:38:49;;;;;;;8.02;2.13;;;21.80;88.90;;;;;;7417965;19;19919;-80
2023/08/07 04:41:15;;;;;;;7.45;1.70;;;21.80;89.40;;;;;;7363914;19;19931;-78
2023/08/07 04:43:42;;;;;;;6.28;2.03;;;21.70;89.90;;;;;;7391343;19;19934;-79
2023/08/07 04:46:09;;;;;;;6.78;1.58;;;21.60;89.70;;;;;;7412217;19;19923;-79
2023/08/07 04:48:37;;;;;;;6.53;1.65;;;21.60;89.90;;;;;;7418492;19;19915;-79
2023/08/07 04:51:03;;;;;;;8.43;1.88;;;21.60;90.10;;;;;;7414995;19;19921;-79
2023/08/07 04:53:28;;;;;;;6.72;1.30;;;21.60;90.20;;;;;;7413076;19;19926;-78
2023/08/07 04:55:54;;;;;;;10.93;2.38;;;21.50;90.30;;;;;;7413700;19;19939;-79
2023/08/07 04:58:20;;;;;;;8.80;1.65;;;21.60;90.30;;;;;;7411993;19;19903;-80
2023/08/07 05:00:46;;;;;;;9.43;2.20;;;21.40;90.40;;;;;;7413070;19;19926;-78
2023/08/07 05:03:15;;;;;;;11.23;1.90;;;21.30;90.80;;;;;;7414518;19;19918;-79
2023/08/07 05:05:41;;;;;;;10.70;1.77;;;21.30;91.20;;;;;;7418709;19;19914;-79
2023/08/07 05:08:06;;;;;;;8.52;2.00;;;21.20;91.40;;;;;;7415546;19;19922;-79
2023/08/07 05:10:32;;;;;;;8.35;1.88;;;21.20;91.40;;;;;;7416663;19;19953;-78
2023/08/07 05:12:58;;;;;;;6.50;1.45;;;21.10;91.50;;;;;;7414869;19;19918;-80
2023/08/07 05:15:25;;;;;;;7.60;1.70;;;21.10;91.60;;;;;;7414655;19;19914;-78
2023/08/07 05:17:52;;;;;;;9.68;1.60;;;21.10;91.80;;;;;;7390358;19;19914;-79
2023/08/07 05:20:18;;;;;;;10.35;2.00;;;21.10;91.90;;;;;;7414461;19;19922;-78
2023/08/07 05:22:45;;;;;;;11.73;1.98;;;21.10;91.70;;;;;;7413464;19;19918;-79
2023/08/07 05:25:15;;;;;;;9.93;1.98;;;21.20;91.60;;;;;;7414625;19;19914;-80
2023/08/07 05:27:47;;;;;;;8.25;1.92;;;21.20;91.50;;;;;;7420908;19;19925;-79
2023/08/07 05:30:13;;;;;;;9.50;1.85;;;21.20;91.30;;;;;;7412634;19;19914;-79
2023/08/07 05:32:39;;;;;;;11.73;2.47;;;21.30;91.20;;;;;;7413090;19;19924;-78
2023/08/07 05:35:07;;;;;;;9.00;1.70;;;21.30;91.20;;;;;;7412979;19;19921;-80
2023/08/07 05:37:36;;;;;;;8.65;1.92;;;21.40;91.10;;;;;;7416754;19;19911;-79
2023/08/07 05:40:02;;;;;;;7.80;1.77;;;21.40;90.90;;;;;;7411389;19;19907;-79
2023/08/07 05:42:28;;;;;;;7.25;2.03;;;21.50;90.80;;;;;;7413478;19;20353;-79
2023/08/07 05:44:54;;;;;;;7.85;1.60;;;21.60;90.20;;;;;;7411199;19;19938;-78
2023/08/07 05:47:20;;;;;;;10.90;1.80;;;21.80;89.70;;;;;;7389989;19;19918;-80
2023/08/07 05:49:46;;;;;;;8.23;1.73;;;21.90;89.20;;;;;;7411899;19;19914;-79
2023/08/07 05:52:11;;;;;;;11.23;2.35;;;22.10;88.10;;;;;;7411132;19;19985;-79
2023/08/07 05:54:37;;;;;;;10.20;2.00;;;22.10;87.70;;;;;;7410162;19;19915;-80
2023/08/07 05:57:03;;;;;;;6.90;1.92;;;22.20;87.00;;;;;;7412904;19;19923;-80
2023/08/07 05:59:29;;;;;;;8.27;1.98;;;22.50;86.20;;;;;;7411891;19;19919;-79
2023/08/07 06:01:55;;;;;;;7.35;1.70;;;22.50;85.30;;;;;;7415315;19;20395;-79
2023/08/07 06:04:21;;;;;;;6.15;1.70;;;22.50;84.90;;;;;;7415320;19;19921;-79
2023/08/07 06:06:48;;;;;;;9.65;2.40;;;22.60;84.60;;;;;;7413972;19;19925;-78
2023/08/07 06:09:17;;;;;;;10.77;2.15;;;22.70;83.40;;;;;;7414394;19;19919;-79
2023/08/07 06:11:43;;;;;;;7.45;1.60;;;22.70;83.50;;;;;;7415262;19;19942;-79
2023/08/07 06:14:09;;;;;;;6.95;1.73;;;22.70;83.50;;;;;;7409549;19;19986;-79
2023/08/07 06:16:35;;;;;;;11.68;2.13;;;22.60;83.90;;;;;;7416501;19;19910;-79
2023/08/07 06:19:00;;;;;;;10.02;1.70;;;22.70;83.30;;;;;;7417436;19;19921;-80
2023/08/07 06:21:28;;;;;;;6.78;1.67;;;22.80;82.80;;;;;;7411370;19;19918;-79
2023/08/07 06:23:54;;;;;;;10.25;1.90;;;22.90;82.00;;;;;;7414119;19;19915;-79
2023/08/07 06:26:20;;;;;;;6.75;1.67;;;23.10;81.40;;;;;;7414310;19;19947;-82
2023/08/07 06:28:46;;;;;;;11.88;1.90;;;23.20;80.60;;;;;;7412476;19;19918;-78
2023/08/07 06:31:12;;;;;;;5.72;1.60;;;23.30;80.30;;;;;;7411325;19;19921;-79
2023/08/07 06:33:38;;;;;;;;;;;23.40;79.60;;;;;;7414236;19;19922;-79
2023/08/07 06:36:06;;;;;;;7.95;1.67;;;23.40;79.10;;;;;;7409485;19;19948;-79
2023/08/07 06:38:32;;;;;;;10.02;2.00;;;23.30;78.80;;;;;;7412107;19;19918;-79
2023/08/07 06:40:59;;;;;;;8.30;2.28;;;23.30;78.90;;;;;;7410415;19;19999;-79
2023/08/07 06:43:25;;;;;;;10.95;2.17;;;23.00;80.00;;;;;;7411970;19;19927;-80
2023/08/07 06:45:53;;;;;;;9.20;2.17;;;22.90;80.00;;;;;;7410283;19;19922;-80
2023/08/07 06:48:19;;;;;;;7.57;1.40;;;22.80;80.50;;;;;;7415363;19;20045;-79
2023/08/07 06:50:51;;;;;;;10.40;1.95;;;22.90;80.20;;;;;;7415772;19;19918;-79
2023/08/07 06:53:17;;;;;;;8.65;1.88;;;22.90;80.40;;;;;;7362264;19;19918;-80
2023/08/07 06:55:43;;;;;;;8.02;1.95;;;23.00;79.70;;;;;;7412713;19;19914;-78
2023/08/07 06:58:09;;;;;;;8.80;1.65;;;22.90;79.70;;;;;;7415145;19;19954;-79
2023/08/07 07:00:36;;;;;;;12.00;2.17;;;23.00;79.40;;;;;;7415191;19;19951;-80
2023/08/07 07:03:03;;;;;;;9.80;1.60;;;22.90;79.60;;;;;;7416475;19;19958;-79
2023/08/07 07:05:30;;;;;;;9.02;1.77;;;23.00;79.60;;;;;;7406899;19;20005;-78
2023/08/07 07:07:56;;;;;;;12.77;2.13;;;23.10;79.10;;;;;;7406862;19;19925;-78
2023/08/07 07:10:22;;;;;;;8.80;1.42;;;23.10;79.10;;;;;;7407215;19;19947;-78
2023/08/07 07:12:48;;;;;;;8.07;1.80;;;23.00;78.70;;;;;;7403187;19;19914;-78
2023/08/07 07:15:15;;;;;;;5.55;1.60;;;23.10;79.10;;;;;;7402835;19;19922;-78
2023/08/07 07:17:40;;;;;;;8.20;1.65;;;23.00;79.10;;;;;;7404821;19;20266;-79
2023/08/07 07:20:09;;;;;;;9.35;1.90;;;23.10;78.90;;;;;;7406444;19;19919;-79
2023/08/07 07:22:35;;;;;;;8.38;1.90;;;23.20;78.50;;;;;;7404301;19;19910;-77
2023/08/07 07:25:01;;;;;;;7.90;1.60;;;23.20;78.30;;;;;;7404850;19;19933;-77
2023/08/07 07:27:27;;;;;;;10.48;1.80;;;23.30;77.70;;;;;;7403124;19;19918;-78
2023/08/07 07:29:53;;;;;;;7.57;1.65;;;23.30;77.30;;;;;;7404816;19;19915;-78
2023/08/07 07:32:19;;;;;;;7.20;1.90;;;23.30;77.80;;;;;;7403554;19;19922;-79
2023/08/07 07:34:45;;;;;;;6.75;1.63;;;23.10;78.70;;;;;;7404810;19;19991;-78
2023/08/07 07:37:10;;;;;;;8.95;1.83;;;23.10;78.60;;;;;;7404740;19;20323;-78
2023/08/07 07:39:36;;;;;;;9.43;1.67;;;23.10;78.30;;;;;;7406737;19;19918;-78
2023/08/07 07:42:04;;;;;;;8.07;1.60;;;23.20;78.20;;;;;;7400789;19;19910;-77
2023/08/07 07:44:31;;;;;;;7.40;1.55;;;23.20;78.60;;;;;;7401842;19;19930;-78
2023/08/07 07:46:57;;;;;;;8.40;1.77;;;23.10;78.50;;;;;;7405136;19;19914;-78
2023/08/07 07:49:22;;;;;;;10.38;2.05;;;23.30;77.70;;;;;;7400553;19;20264;-78
2023/08/07 07:51:49;;;;;;;8.57;2.13;;;23.40;77.60;;;;;;7408113;19;20281;-77
2023/08/07 07:54:15;;;;;;;8.30;2.30;;;23.70;76.20;;;;;;7407227;19;19926;-79
2023/08/07 07:56:42;;;;;;;7.80;1.83;;;23.90;75.80;;;;;;7407528;19;19923;-78
2023/08/07 07:59:08;;;;;;;8.38;1.67;;;24.10;74.60;;;;;;7374559;19;20395;-78
2023/08/07 08:01:33;;;;;;;7.43;2.03;;;23.80;74.80;;;;;;7408801;19;19978;-78
2023/08/07 08:03:59;;;;;;;7.43;1.80;;;23.80;75.30;;;;;;7406652;19;19910;-77
2023/08/07 08:06:25;;;;;;;10.50;2.55;;;23.70;76.00;;;;;;7405922;19;19922;-78
2023/08/07 08:08:51;;;;;;;10.63;2.08;;;24.10;74.60;;;;;;7406005;19;19934;-77
2023/08/07 08:11:18;;;;;;;7.53;1.80;;;24.00;74.20;;;;;;7384925;19;19979;-78
2023/08/07 08:13:44;;;;;;;7.47;2.33;;;23.90;75.00;;;;;;7406284;19;19986;-78
2023/08/07 08:16:10;;;;;;;9.27;1.60;;;24.20;73.80;;;;;;7405607;19;19943;-78
2023/08/07 08:18:36;;;;;;;6.55;1.75;;;24.50;73.30;;;;;;7408155;19;19930;-78
2023/08/07 08:21:02;;;;;;;6.63;1.67;;;24.60;71.40;;;;;;7409316;19;20348;-78
2023/08/07 08:23:27;;;;;;;7.63;1.45;;;24.50;72.10;;;;;;7408532;19;19914;-78
2023/08/07 08:25:54;;;;;;;8.02;1.80;;;24.20;74.00;;;;;;7408473;19;19914;-78
2023/08/07 08:28:19;;;;;;;10.45;1.98;;;24.50;72.40;;;;;;7409006;19;19915;-78
2023/08/07 08:30:45;;;;;;;8.95;1.85;;;24.40;72.20;;;;;;7409214;19;19915;-77
2023/08/07 08:33:14;;;;;;;9.13;2.15;;;24.30;70.20;;;;;;7405469;19;19926;-78
2023/08/07 08:35:40;;;;;;;7.78;1.60;;;24.40;70.40;;;;;;7409043;19;19926;-76
2023/08/07 08:38:06;;;;;;;11.80;2.05;;;24.50;69.60;;;;;;7406619;19;19919;-78
2023/08/07 08:40:33;;;;;;;8.77;1.70;;;24.50;70.40;;;;;;7407061;19;19939;-77
2023/08/07 08:43:00;;;;;;;9.18;2.13;;;24.70;69.30;;;;;;7406173;19;19925;-78
2023/08/07 08:45:27;;;;;;;12.32;1.95;;;24.90;69.00;;;;;;7408799;19;20003;-78
2023/08/07 08:48:02;;;;;;;7.72;1.50;;;24.60;69.60;;;;;;7406981;19;19922;-77
2023/08/07 08:50:28;;;;;;;8.55;1.73;;;24.40;70.20;;;;;;7406544;19;19926;-77
2023/08/07 08:52:56;;;;;;;7.07;2.03;;;24.70;69.40;;;;;;7407127;19;19952;-78
2023/08/07 08:55:23;;;;;;;10.32;2.10;;;25.10;69.00;;;;;;7405363;19;19947;-76
2023/08/07 08:57:53;;;;;;;;;;;25.50;67.90;;;;;;7407832;19;19919;-78
2023/08/07 09:00:25;;;;;;;6.80;1.92;;;25.40;67.10;;;;;;7402308;19;20255;-77
2023/08/07 09:02:52;;;;;;;11.10;1.90;;;26.00;67.60;;;;;;7404687;19;20657;-79
2023/08/07 09:05:21;;;;;;;7.60;1.92;;;25.90;66.90;;;;;;7407521;19;19930;-77
2023/08/07 09:07:49;;;;;;;8.73;1.58;;;25.50;67.20;;;;;;7408130;19;19923;-78
2023/08/07 09:10:16;;;;;;;8.93;2.08;;;25.40;68.80;;;;;;7406616;19;19985;-78
2023/08/07 09:12:54;;;;;;;6.97;1.75;;;25.90;67.30;;;;;;7405279;19;19927;-78
2023/08/07 09:15:21;;;;;;;7.15;1.90;;;25.50;66.20;;;;;;7383076;19;19939;-77
2023/08/07 09:17:48;;;;;;;8.13;2.30;;;27.00;64.50;;;;;;7406200;19;19907;-77
2023/08/07 09:20:14;;;;;;;8.95;2.22;;;26.40;63.40;;;;;;7408161;19;19907;-77
2023/08/07 09:22:41;;;;;;;7.07;1.90;;;25.70;64.20;;;;;;7405456;19;19915;-78
2023/08/07 09:25:09;;;;;;;8.77;2.28;;;26.00;66.70;;;;;;7403371;19;19906;-78
2023/08/07 09:27:39;;;;;;;10.00;2.15;;;26.80;64.20;;;;;;7405069;19;19960;-77
2023/08/07 09:30:08;;;;;;;7.68;1.77;;;26.50;63.20;;;;;;7405021;19;19919;-77
2023/08/07 09:32:34;;;;;;;8.52;2.10;;;25.90;64.50;;;;;;7404888;19;19918;-77
2023/08/07 09:35:03;;;;;;;8.25;1.73;;;26.10;65.40;;;;;;7406068;19;19919;-78
2023/08/07 09:37:29;;;;;;;7.10;2.35;;;26.50;64.60;;;;;;7404782;19;20434;-77
2023/08/07 09:39:55;;;;;;;7.57;1.90;;;27.40;61.50;;;;;;7407175;19;19951;-78
2023/08/07 09:42:21;;;;;;;7.95;1.52;;;26.80;62.10;;;;;;7406125;19;19922;-78
2023/08/07 09:44:48;;;;;;;7.88;1.90;;;26.10;65.00;;;;;;7404499;19;19956;-78
2023/08/07 09:47:18;;;;;;;6.22;1.60;;;25.80;65.90;;;;;;7404843;19;19918;-78
2023/08/07 09:49:45;;;;;;;7.10;2.78;;;26.20;63.90;;;;;;7406645;19;20291;-77
2023/08/07 09:52:14;;;;;;;8.18;1.98;;;26.60;63.80;;;;;;7403810;19;19922;-77
2023/08/07 09:54:40;;;;;;;6.13;1.98;;;27.30;61.40;;;;;;7402265;19;20335;-77
2023/08/07 09:57:06;;;;;;;6.50;1.70;;;26.10;63.40;;;;;;7404163;19;19943;-78
2023/08/07 09:59:33;;;;;;;6.65;2.00;;;25.10;64.90;;;;;;7407272;19;19927;-79
2023/08/07 10:02:03;;;;;;;6.85;2.03;;;25.30;66.20;;;;;;7371992;19;19918;-77
2023/08/07 10:04:30;;;;;;;11.77;2.97;;;26.20;64.70;;;;;;7382787;19;19922;-78
2023/08/07 10:06:57;;;;;;;8.75;2.03;;;27.00;61.80;;;;;;7405932;19;20343;-77
2023/08/07 10:09:23;;;;;;;8.32;2.25;;;27.10;61.00;;;;;;7404664;19;20014;-77
2023/08/07 10:11:50;;;;;;;7.45;1.95;;;27.80;59.90;;;;;;7407559;19;19927;-78
2023/08/07 10:14:16;;;;;;;7.20;2.53;;;28.10;58.20;;;;;;7406644;19;20006;-78
2023/08/07 10:16:44;;;;;;;6.18;2.58;;;27.40;59.90;;;;;;7406769;19;20274;-78
2023/08/07 10:19:11;;;;;;;7.13;1.92;;;26.80;61.00;;;;;;7405228;19;19923;-78
2023/08/07 10:21:38;;;;;;;7.95;1.75;;;26.70;62.20;;;;;;7403697;19;19952;-77
2023/08/07 10:24:05;;;;;;;7.95;2.40;;;26.10;64.10;;;;;;7403368;19;19939;-78
2023/08/07 10:26:37;;;;;;;7.57;1.75;;;27.30;61.90;;;;;;7350623;19;19921;-78
2023/08/07 10:29:09;;;;;;;7.63;2.08;;;26.30;63.50;;;;;;7400695;19;20363;-77
2023/08/07 10:31:36;;;;;;;11.77;2.55;;;26.20;64.40;;;;;;7405611;19;20693;-78
2023/08/07 10:34:02;;;;;;;10.50;3.22;;;25.70;65.40;;;;;;7403964;19;19918;-78
2023/08/07 10:36:35;;;;;;;7.97;2.47;;;25.00;64.90;;;;;;7402808;19;20002;-78
2023/08/07 10:39:12;;;;;;;7.65;2.05;;;25.40;64.40;;;;;;7350876;19;19910;-78
2023/08/07 10:41:52;;;;;;;10.15;2.00;;;25.80;64.10;;;;;;7403919;19;19947;-78
2023/08/07 10:44:23;;;;;;;11.10;2.70;;;25.50;64.70;;;;;;7350342;19;19914;-77
2023/08/07 10:46:54;;;;;;;24.15;2.85;;;25.80;64.10;;;;;;7402348;19;20625;-77
2023/08/07 10:49:36;;;;;;;9.55;1.90;;;26.00;64.10;;;;;;7404070;19;19923;-78
2023/08/07 10:52:10;;;;;;;7.68;1.98;;;25.60;64.90;;;;;;7402901;19;19946;-77
2023/08/07 10:54:55;;;;;;;8.23;1.90;;;26.10;65.10;;;;;;7403237;19;19918;-77
2023/08/07 10:57:21;;;;;;;10.73;1.85;;;26.80;61.70;;;;;;7403887;19;19926;-78
2023/08/07 10:59:56;;;;;;;13.98;2.70;;;27.10;61.10;;;;;;7404602;19;20756;-78
2023/08/07 11:02:26;;;;;;;7.95;2.45;;;26.30;62.10;;;;;;7402402;19;19942;-78
2023/08/07 11:04:55;;;;;;;7.03;1.77;;;26.30;63.50;;;;;;7401959;19;19931;-78
2023/08/07 11:07:29;;;;;;;6.03;1.73;;;25.80;63.70;;;;;;7400485;19;19926;-78
2023/08/07 11:09:56;;;;;;;7.97;3.03;;;25.70;64.90;;;;;;7404367;19;19911;-76
2023/08/07 11:12:29;;;;;;;4.47;1.52;;;26.60;63.50;;;;;;7401491;19;19943;-78
2023/08/07 11:14:56;;;;;;;7.22;1.52;;;25.60;63.70;;;;;;7401613;19;19922;-78
2023/08/07 11:17:29;;;;;;;7.20;2.50;;;25.90;63.90;;;;;;7401749;19;19943;-78
2023/08/07 11:19:56;;;;;;;5.70;1.67;;;26.40;63.00;;;;;;7404799;19;19919;-77
2023/08/07 11:22:22;;;;;;;5.57;1.85;;;26.10;62.30;;;;;;7400539;19;19918;-78
2023/08/07 11:24:48;;;;;;;;;;;26.40;62.60;;;;;;7408243;19;19921;-79
2023/08/07 11:27:13;;;;;;;5.40;1.80;;;27.00;60.40;;;;;;7386081;19;19918;-78
2023/08/07 11:29:39;;;;;;;9.45;2.22;;;26.60;60.30;;;;;;7420172;19;19918;-78
2023/08/07 11:32:06;;;;;;;9.20;2.22;;;27.60;59.40;;;;;;7414478;19;19914;-78
2023/08/07 11:34:32;;;;;;;8.95;2.47;;;27.30;59.50;;;;;;7419131;19;19919;-77
2023/08/07 11:36:58;;;;;;;8.63;2.20;;;27.70;58.90;;;;;;7415680;19;19910;-78
2023/08/07 11:39:24;;;;;;;9.52;2.50;;;27.60;59.00;;;;;;7417775;19;19943;-78
2023/08/07 11:41:52;;;;;;;7.03;2.40;;;28.40;57.60;;;;;;7422068;19;20334;-78
2023/08/07 11:44:18;;;;;;;6.97;1.98;;;26.80;60.00;;;;;;7418528;19;19914;-78
2023/08/07 11:46:46;;;;;;;5.28;1.88;;;26.00;62.00;;;;;;7420160;19;19922;-78
2023/08/07 11:49:12;;;;;;;6.78;1.77;;;26.30;61.30;;;;;;7419500;19;19970;-78
2023/08/07 11:51:38;;;;;;;9.40;2.65;;;27.00;61.70;;;;;;7422029;19;20312;-78
2023/08/07 11:54:04;;;;;;;7.90;2.03;;;27.70;59.70;;;;;;7385498;19;19982;-78
2023/08/07 11:56:30;;;;;;;7.43;2.22;;;28.20;58.70;;;;;;7418250;19;19918;-78
2023/08/07 11:58:59;;;;;;;7.75;2.00;;;27.60;59.40;;;;;;7415659;19;20016;-78
2023/08/07 12:01:26;;;;;;;8.68;2.08;;;27.50;59.90;;;;;;7415328;19;20387;-78
2023/08/07 12:03:54;;;;;;;6.63;1.88;;;27.40;60.50;;;;;;7416142;19;19914;-78
2023/08/07 12:06:20;;;;;;;9.32;2.08;;;27.40;61.60;;;;;;7418250;19;19914;-78
2023/08/07 12:08:48;;;;;;;;;;;28.20;60.70;;;;;;7424946;19;19926;-78
2023/08/07 12:11:14;;;;;;;7.63;2.35;;;27.00;63.50;;;;;;7421797;19;19922;-78
2023/08/07 12:13:45;;;;;;;7.70;2.03;;;27.80;61.40;;;;;;7420373;19;19923;-78
2023/08/07 12:16:15;;;;;;;8.63;2.45;;;27.80;60.00;;;;;;7415387;19;19925;-79
2023/08/07 12:18:53;;;;;;;8.43;2.25;;;28.60;59.30;;;;;;7417703;19;19994;-78
2023/08/07 12:21:22;;;;;;;6.45;1.88;;;28.40;59.20;;;;;;7416109;19;19911;-78
2023/08/07 12:23:48;;;;;;;9.90;2.00;;;28.00;60.90;;;;;;7418500;19;19929;-78
2023/08/07 12:26:15;;;;;;;9.75;2.40;;;28.00;60.40;;;;;;7417121;19;19922;-77
2023/08/07 12:28:41;;;;;;;8.00;2.03;;;28.80;59.30;;;;;;7413697;19;19939;-78
2023/08/07 12:31:07;;;;;;;9.27;2.13;;;28.30;60.50;;;;;;7416449;19;19910;-78
2023/08/07 12:33:33;;;;;;;9.43;2.72;;;28.80;59.80;;;;;;7415628;19;20255;-79
2023/08/07 12:36:01;;;;;;;8.38;1.95;;;29.00;59.40;;;;;;7414666;19;19922;-78
2023/08/07 12:38:27;;;;;;;6.65;2.13;;;28.00;61.20;;;;;;7408121;19;20357;-78
2023/08/07 12:40:54;;;;;;;9.85;2.22;;;27.60;63.30;;;;;;7412904;19;20326;-78
2023/08/07 12:43:20;;;;;;;8.98;2.10;;;27.30;62.10;;;;;;7407551;19;19931;-78
2023/08/07 12:45:46;;;;;;;9.65;2.60;;;28.30;62.40;;;;;;7411581;19;20063;-78